Date,TemperatureHighF,TemperatureAvgF,TemperatureLowF,DewpointHighF,DewpointAvgF,DewpointLowF,HumidityHigh,HumidityAvg,HumidityLow,PressureMaxIn,PressureMinIn,WindSpeedMaxMPH,WindSpeedAvgMPH,GustSpeedMaxMPH,PrecipitationSumIn
2013-2-21,60.0,52.5,46.3,47.6,43.9,40.1,83,73,58,29.90,29.78,9,2,12,0.04
2013-2-22,59.6,51.7,44.1,49.8,43.0,37.1,83,72,62,30.01,29.90,7,2,0,0.00
2013-2-23,59.9,52.5,45.2,50.5,43.0,33.3,86,70,55,29.98,29.75,8,2,0,0.00
2013-2-24,68.6,54.3,45.8,47.8,38.4,6.4,89,62,9,30.01,29.79,19,3,23,0.00
2013-2-25,61.7,53.1,45.0,50.5,33.6,15.2,83,51,21,30.02,29.89,12,3,13,0.00
2013-2-26,59.9,53.4,43.8,50.0,41.7,23.2,77,65,30,29.92,29.80,9,3,0,0.00
2013-2-27,64.9,59.1,51.8,48.0,30.9,15.8,56,36,19,30.07,29.91,10,2,0,0.00
2013-2-28,70.4,60.7,52.2,50.6,30.8,13.8,60,34,18,30.10,30.03,10,2,0,0.00
2013-3-1,64.3,60.1,56.6,27.4,22.8,19.5,32,24,18,30.09,30.05,9,3,13,0.00
2013-3-4,62.2,58.1,54.3,52.3,51.0,49.0,86,78,68,29.91,29.84,10,2,0,0.00
2013-3-5,59.1,55.1,52.8,52.1,49.8,47.2,86,82,76,29.94,29.86,9,2,0,0.00
2013-3-6,60.2,55.1,50.6,48.9,45.6,43.4,85,71,58,29.97,29.83,11,3,0,0.00
2013-3-7,57.9,53.9,51.2,51.7,48.5,43.3,92,82,70,29.83,29.67,9,3,0,0.08
2013-3-8,55.9,51.9,47.3,48.9,44.8,39.7,91,77,58,29.85,29.59,20,4,29,0.45
2013-3-9,59.7,54.6,50.9,48.0,45.7,43.6,81,72,61,29.96,29.85,18,6,23,0.00
2013-3-12,63.9,57.3,52.8,55.1,52.6,50.4,94,85,70,29.90,29.81,7,2,0,0.01
2013-3-13,56.2,51.3,45.7,53.1,49.6,44.3,96,94,88,29.91,29.84,6,1,0,0.01
2013-3-14,55.2,49.4,46.8,54.3,48.3,45.6,97,96,94,29.90,29.86,4,0,0,0.01
2013-3-15,56.8,52.6,50.3,53.3,50.5,48.9,95,93,86,29.80,29.76,7,1,0,0.00
2013-3-16,60.5,54.1,49.3,52.1,50.2,47.6,96,87,72,29.80,29.72,10,2,12,0.00
2013-3-17,53.7,53.4,53.2,50.6,50.0,49.3,90,88,86,29.79,29.75,12,2,0,0.00
2013-3-18,62.8,58.5,55.4,51.9,50.4,49.5,86,75,65,29.90,29.81,8,2,0,0.00
2013-3-19,62.9,61.2,59.1,53.5,52.6,51.6,79,73,70,29.92,29.86,9,3,0,0.00
2013-3-20,62.7,58.7,54.9,55.5,53.9,51.8,92,84,69,29.90,29.79,10,3,0,0.00
2013-3-21,64.3,60.1,54.6,56.8,54.2,50.2,91,81,74,29.74,29.62,10,2,0,0.00
2013-3-22,63.5,57.5,53.7,54.4,52.3,50.5,90,83,71,29.69,29.62,8,3,0,0.00
2013-3-25,64.6,58.0,56.4,56.7,-22.0,-99.9,91,88,75,29.77,29.70,6,1,0,0.00
2013-3-26,64.4,57.3,52.3,54.3,52.4,48.9,92,84,68,29.79,29.72,9,2,0,0.00
2013-3-27,62.9,57.8,55.0,53.3,51.3,49.6,87,79,68,29.86,29.74,10,2,0,0.00
2013-3-28,64.0,57.4,52.7,55.7,52.0,49.3,89,82,74,29.88,29.83,11,3,13,0.00
2013-3-29,61.8,58.2,55.7,55.2,53.8,52.7,91,85,78,29.93,29.85,9,2,0,0.00
2013-3-30,62.4,57.6,55.0,55.2,53.7,51.9,92,87,76,29.95,29.87,10,2,0,0.00
2013-3-31,65.8,58.6,52.6,57.8,53.8,49.5,92,84,71,29.95,29.88,13,3,14,0.00
2013-4-1,63.1,58.0,54.5,54.4,52.0,48.5,90,81,67,29.98,29.89,15,5,20,0.00
2013-4-2,63.4,57.2,53.4,54.4,52.5,50.4,91,85,70,29.91,29.80,9,2,0,0.00
2013-4-3,60.2,56.2,53.7,54.3,52.3,50.8,91,87,80,29.90,29.85,6,2,0,0.00
2013-4-4,62.5,59.1,56.7,56.2,54.6,53.2,91,85,76,29.89,29.82,14,3,14,0.00
2013-4-5,65.3,58.9,56.1,57.6,54.8,53.1,94,86,72,29.91,29.81,10,2,0,0.02
2013-4-6,66.0,60.0,55.6,56.9,54.5,52.1,90,82,70,29.90,29.77,11,3,0,0.01
2013-4-7,65.4,59.0,52.0,55.8,53.1,49.2,91,81,67,29.79,29.62,12,2,15,0.00
2013-4-8,60.9,57.4,52.8,54.4,49.7,43.5,90,76,62,29.64,29.51,26,7,29,0.00
2013-4-9,66.5,57.7,49.5,53.4,46.1,33.7,82,67,33,29.82,29.62,14,3,18,0.00
2013-4-10,71.1,59.6,49.7,56.0,45.8,31.9,72,61,37,29.90,29.80,8,2,0,0.00
2013-4-11,64.4,58.5,53.9,55.8,47.6,34.6,84,68,47,29.82,29.61,14,4,17,0.00
2013-4-12,63.9,58.7,56.3,54.6,51.9,49.4,89,78,67,29.70,29.60,14,4,15,0.00
2013-4-13,59.0,57.3,55.7,54.5,52.9,50.6,88,85,82,29.73,29.66,8,2,0,0.00
2013-4-14,61.4,56.9,54.0,55.7,52.4,50.1,92,85,78,29.70,29.64,11,2,13,0.00
2013-4-15,62.8,57.6,54.2,54.8,51.9,47.1,89,81,71,29.73,29.65,11,2,0,0.00
2013-4-16,61.7,55.2,50.7,47.9,45.2,41.8,79,69,54,29.80,29.68,14,4,15,0.00
2013-4-17,68.2,56.0,48.5,44.6,34.9,22.4,78,50,21,29.92,29.80,20,3,21,0.00
2013-4-18,72.6,63.7,52.8,49.1,26.8,10.0,53,26,9,29.99,29.90,18,6,22,0.00
2013-4-19,74.5,63.8,54.1,52.6,34.6,16.0,85,36,12,29.95,29.77,15,3,20,0.00
2013-4-20,71.7,61.9,52.2,60.0,52.5,45.4,90,73,45,29.82,29.69,7,1,0,0.00
2013-4-21,58.5,56.9,54.6,55.8,54.6,52.6,94,92,89,29.80,29.75,2,1,0,0.00
2013-4-22,64.3,59.8,56.3,54.4,34.3,-99.9,92,78,68,29.81,29.73,10,3,0,0.00
2013-4-23,66.3,59.8,56.2,53.3,51.7,50.1,82,75,59,29.79,29.67,10,3,12,0.00
2013-4-24,61.9,58.7,56.8,54.4,52.6,49.2,90,80,67,29.79,29.71,9,2,0,0.01
2013-4-25,67.4,60.2,55.9,55.0,53.0,50.9,87,78,59,29.89,29.77,8,2,0,0.00
2013-4-26,66.7,66.7,66.7,53.7,53.7,53.7,63,63,63,29.86,29.86,6,6,0,0.00
2013-4-27,66.7,66.7,66.7,53.7,53.7,53.7,63,63,63,29.86,29.86,6,6,0,0.00
2013-4-28,66.7,66.7,66.7,53.7,53.7,53.7,63,63,63,29.86,29.86,6,6,0,0.00
2013-4-29,66.8,61.1,57.5,57.0,54.8,52.7,88,80,63,29.86,29.60,13,3,15,0.00
2013-4-30,64.7,59.7,57.4,56.0,53.8,51.7,91,81,72,29.71,29.64,16,4,16,0.00
2013-5-1,66.0,61.5,57.5,57.6,56.2,55.0,92,83,72,29.90,29.70,11,2,13,0.01
2013-5-2,76.2,63.7,57.2,61.0,57.2,53.4,88,80,57,29.92,29.77,9,2,13,0.00
2013-5-3,79.8,67.6,56.4,62.7,52.5,37.7,85,61,30,29.82,29.59,10,2,0,0.00
2013-5-4,66.8,61.1,58.0,57.4,54.7,51.3,91,80,68,29.67,29.57,19,6,22,0.00
2013-5-5,60.0,59.1,58.2,54.4,53.7,52.5,85,82,80,29.70,29.64,10,3,12,0.00
2013-5-6,65.0,61.7,59.3,58.6,56.3,53.6,92,83,72,29.83,29.70,16,3,18,0.06
2013-5-7,69.0,62.5,57.4,57.2,54.8,50.3,89,77,55,29.88,29.78,9,2,0,0.00
2013-5-8,65.8,60.2,57.6,56.5,54.8,53.1,87,83,70,29.91,29.86,7,2,0,0.00
2013-5-9,64.9,61.2,59.4,56.1,55.0,54.4,85,80,72,29.89,29.84,8,2,0,0.00
2013-5-10,67.3,61.6,56.7,58.7,55.3,52.6,87,80,73,29.90,29.86,10,3,14,0.00
2013-5-13,82.3,73.6,64.6,65.3,60.7,54.6,76,65,40,29.78,29.66,13,3,15,0.00
2013-5-14,68.1,62.6,58.8,59.3,57.0,54.8,89,82,71,29.81,29.71,10,2,0,0.00
2013-5-15,67.9,62.4,59.5,57.2,55.2,53.5,86,78,67,29.85,29.77,14,4,17,0.00
2013-5-16,67.6,63.0,60.0,58.9,55.9,53.1,84,78,71,29.79,29.72,10,3,0,0.00
2013-5-17,69.8,63.8,60.6,58.9,56.8,53.4,86,78,66,29.82,29.71,11,3,0,0.00
2013-5-18,69.8,63.8,59.7,59.3,57.0,54.8,88,79,66,29.85,29.78,10,2,13,0.00
2013-5-19,62.9,60.7,58.9,57.5,55.4,54.2,88,83,77,29.80,29.77,8,2,0,0.00
2013-5-20,62.9,62.9,62.9,55.6,55.6,55.6,77,77,77,29.80,29.80,1,1,0,0.00
2013-5-21,69.8,64.6,61.9,60.8,57.9,55.6,87,79,72,29.80,29.65,10,2,0,0.00
2013-5-22,68.2,63.7,61.3,58.1,56.2,54.1,83,77,65,29.66,29.60,13,4,14,0.00
2013-5-23,63.1,60.2,59.0,55.7,53.8,52.4,82,80,72,29.72,29.63,16,3,16,0.00
2013-5-24,67.4,63.0,57.4,55.1,53.3,51.1,80,71,63,29.81,29.74,9,2,0,0.00
2013-5-25,68.5,61.2,53.6,56.7,52.9,48.2,84,75,59,29.84,29.78,10,3,12,0.00
2013-5-26,64.0,60.9,58.3,54.4,53.2,51.8,81,76,68,29.85,29.80,9,4,0,0.00
2013-5-28,71.5,66.7,61.9,60.6,58.4,54.8,87,75,64,29.67,29.57,12,4,16,0.00
2013-5-29,71.5,65.5,60.8,62.9,59.0,56.4,87,80,70,29.62,29.54,14,4,15,0.00
2013-5-30,70.3,64.4,59.8,60.5,58.4,55.8,88,81,69,29.70,29.57,14,4,18,0.00
2013-5-31,70.1,65.1,61.2,61.1,58.6,56.0,87,80,69,29.71,29.63,16,3,16,0.00
2013-6-1,70.8,65.1,61.8,62.0,59.8,57.9,89,83,73,29.67,29.59,9,2,0,0.00
2013-6-2,62.2,62.0,61.8,59.1,58.8,58.4,90,89,88,29.63,29.57,8,2,0,0.00
2013-6-4,62.2,62.2,62.2,58.9,58.9,58.9,89,89,89,29.62,29.62,1,1,0,0.00
2013-6-5,68.8,64.5,59.7,60.8,59.1,56.5,89,83,74,29.76,29.72,12,3,14,0.00
2013-6-6,68.3,62.8,58.0,59.7,57.9,55.3,91,84,71,29.76,29.69,11,2,13,0.00
2013-6-7,68.5,62.4,59.6,59.7,57.4,56.3,90,84,73,29.72,29.61,11,2,12,0.00
2013-6-8,66.0,61.6,59.2,59.0,57.1,56.0,90,85,75,29.72,29.60,9,2,0,0.00
2013-6-9,67.9,62.1,59.3,59.2,56.9,55.3,90,83,73,29.75,29.68,7,1,0,0.00
2013-6-10,70.0,64.7,59.3,59.6,56.9,54.6,87,76,64,29.76,29.70,10,2,13,0.00
2013-6-11,70.1,63.9,58.3,62.9,59.1,54.7,91,85,77,29.75,29.69,12,2,13,0.00
2013-6-12,68.5,63.5,60.7,61.1,58.8,57.6,91,85,75,29.83,29.73,8,2,0,0.00
2013-6-13,70.0,64.6,61.9,60.2,58.6,57.8,87,81,69,29.82,29.72,10,2,12,0.00
2013-6-14,68.8,62.8,61.5,59.0,57.7,56.9,87,83,70,29.73,29.70,9,3,12,0.00
2013-8-26,77.0,71.5,63.5,65.2,59.9,-99.9,90,72,53,29.90,29.74,11,2,14,0.00
2013-8-27,74.2,68.2,64.1,66.0,63.2,61.1,91,84,71,29.84,29.75,9,2,13,0.00
2013-8-28,74.6,68.4,63.9,65.1,62.6,59.8,91,82,70,29.88,29.75,10,2,0,0.00
2013-8-29,76.1,70.9,64.1,66.4,63.0,60.1,91,77,60,29.91,29.85,7,1,0,0.00
2013-8-30,87.3,78.4,70.2,71.0,66.0,58.6,82,66,55,29.96,29.86,10,1,13,0.00
2013-8-31,80.5,75.0,71.2,70.8,67.1,63.9,87,77,61,29.95,29.86,8,1,0,0.00
2013-9-1,78.4,71.9,66.0,69.7,66.7,64.1,94,84,74,29.91,29.82,13,3,15,0.00
2013-9-2,75.2,67.9,63.7,67.4,65.0,62.5,97,91,76,29.91,29.80,10,2,0,0.00
2013-9-3,78.0,71.7,66.9,68.6,66.3,64.2,93,83,69,29.89,29.80,10,2,0,0.00
2013-9-4,81.0,72.8,68.0,69.4,65.4,61.8,90,78,53,29.88,29.80,12,2,13,0.00
2013-9-5,77.9,71.4,66.9,67.5,64.8,62.6,87,80,65,29.88,29.80,10,2,0,0.00
2013-9-6,76.5,70.7,66.9,68.1,64.8,61.9,90,82,74,29.86,29.77,8,1,0,0.00
2013-9-7,77.3,70.6,66.0,68.7,65.1,61.7,93,83,66,29.85,29.79,9,2,0,0.00
2013-9-8,71.8,66.9,63.0,65.6,62.8,59.7,93,87,77,29.84,29.73,12,2,14,0.00
2013-9-9,70.8,66.5,61.1,64.0,61.8,59.1,93,85,78,29.81,29.74,9,3,0,0.01
2013-9-10,68.5,68.5,68.5,62.4,62.4,62.4,81,81,81,29.75,29.75,5,5,0,0.01
2013-9-11,68.5,68.5,68.5,62.4,62.4,62.4,81,81,81,29.75,29.75,5,5,0,0.01
2013-9-12,68.5,68.5,68.5,62.4,62.4,62.4,81,81,81,29.75,29.75,5,5,0,0.01
2013-9-13,68.5,68.5,68.5,62.4,62.4,62.4,81,81,81,29.75,29.75,5,5,0,0.01
2013-9-14,68.5,68.5,68.5,62.4,62.4,62.4,81,81,81,29.75,29.75,5,5,0,0.01
2013-9-15,68.5,68.5,68.5,62.4,62.4,62.4,81,81,81,29.75,29.75,5,5,0,0.01
2013-9-16,71.8,69.7,68.5,64.2,63.2,62.4,81,80,77,29.75,29.73,10,4,13,0.01
2013-9-17,70.8,70.8,70.8,64.0,64.0,64.0,79,79,79,29.73,29.73,3,3,0,0.01
2013-9-18,70.8,69.6,62.3,64.0,63.3,58.5,88,80,79,29.77,29.73,3,3,0,0.01
2013-9-19,73.1,66.5,60.8,63.1,60.7,57.8,91,82,70,29.82,29.74,8,2,0,0.00
2013-9-20,68.8,66.1,64.1,62.9,60.6,58.6,89,83,78,29.88,29.80,6,1,0,0.00
2013-9-21,70.8,66.8,62.2,61.5,59.8,57.8,88,79,66,29.90,29.80,12,4,16,0.00
2013-9-22,71.8,65.6,59.9,61.9,57.9,52.4,90,77,63,29.84,29.77,10,2,12,0.00
2013-9-23,75.1,67.5,59.9,64.4,57.3,50.3,82,70,50,29.88,29.78,9,2,0,0.00
2013-9-24,76.4,69.6,63.1,66.3,58.4,44.3,88,68,45,29.92,29.83,8,2,0,0.00
2013-9-25,70.3,64.9,61.9,61.2,59.3,56.5,89,82,73,29.85,29.70,19,4,21,0.00
2013-9-26,71.3,65.3,59.2,59.8,55.5,48.6,80,71,54,29.87,29.70,18,5,22,0.00
2013-9-27,73.2,65.2,56.8,61.3,50.8,37.4,72,61,28,29.96,29.85,9,3,0,0.00
2013-9-30,71.6,67.7,62.8,64.0,61.4,55.1,91,81,66,29.95,29.84,9,2,0,0.00
2013-10-1,71.3,64.7,58.5,62.9,59.0,49.7,93,82,73,29.93,29.86,13,3,15,0.01
2013-10-2,71.2,65.5,62.6,60.8,58.2,56.0,84,78,67,29.96,29.87,10,3,13,0.00
2013-10-3,67.8,63.6,61.5,59.7,57.3,55.7,84,80,73,29.92,29.88,10,2,0,0.00
2013-10-7,73.5,67.9,60.0,64.7,58.7,38.3,87,74,31,29.96,29.89,9,2,0,0.00
2013-10-8,69.5,63.1,57.7,59.0,55.0,51.1,90,75,63,29.92,29.80,13,2,13,0.00
2013-10-9,63.9,59.7,54.2,55.2,51.6,47.3,90,75,65,29.82,29.72,19,4,22,0.16
2013-10-10,62.4,54.1,51.9,51.3,48.3,46.7,86,81,65,29.98,29.79,8,4,0,0.00
2013-10-11,66.7,62.6,58.4,57.9,56.1,53.6,85,80,70,29.95,29.92,15,4,17,0.00
2013-10-12,67.5,61.5,55.2,59.6,56.3,50.9,90,83,74,29.96,29.88,10,2,14,0.00
2013-10-13,67.3,61.8,55.4,57.5,55.0,51.6,89,79,68,30.01,29.91,8,2,0,0.00
2013-10-14,74.0,62.4,53.9,62.0,55.5,51.1,91,79,54,30.00,29.86,12,3,0,0.00
2013-10-15,71.9,67.1,55.2,59.0,55.7,41.3,92,68,38,29.92,29.87,4,1,0,0.00
2013-10-16,71.9,71.9,71.9,59.0,59.0,59.0,64,64,64,29.91,29.91,1,1,0,0.00
2013-10-17,71.9,71.9,71.9,59.0,59.0,59.0,64,64,64,29.91,29.91,1,1,0,0.00
2013-10-18,71.9,71.9,71.9,59.0,59.0,59.0,64,64,64,29.91,29.91,1,1,0,0.00
2013-10-19,71.9,71.9,71.9,59.0,59.0,59.0,64,64,64,29.91,29.91,1,1,0,0.00
2013-10-20,71.9,71.9,71.9,59.0,59.0,59.0,64,64,64,29.91,29.91,1,1,0,0.00
2013-10-21,71.9,67.5,57.7,59.0,58.3,55.3,92,74,64,29.97,29.90,8,1,0,0.00
2013-10-22,65.5,60.5,55.4,59.3,57.0,53.4,95,88,79,29.99,29.90,13,2,15,0.00
2013-10-23,65.5,61.4,59.8,57.1,55.9,54.6,87,82,74,29.94,29.90,8,2,0,0.00
2013-10-24,62.5,62.5,62.4,54.0,53.7,53.7,74,73,73,30.01,30.01,5,5,0,0.00
2013-10-25,62.5,62.5,62.5,53.7,53.7,53.7,73,73,73,30.01,30.01,5,5,0,0.00
2013-11-4,66.0,59.7,53.2,53.8,51.4,47.8,83,74,61,29.92,29.81,13,2,13,0.00
2013-11-5,70.2,60.6,52.7,58.3,45.6,18.4,88,62,20,30.11,29.92,10,3,0,0.00
2013-11-6,73.0,64.5,55.2,58.2,28.9,10.4,74,29,11,30.18,30.05,13,2,14,0.00
2013-11-7,79.0,67.8,59.5,58.7,33.3,11.6,61,29,13,30.09,29.96,12,2,0,0.00
2013-11-8,70.5,61.8,54.4,60.1,47.8,23.6,93,64,27,30.02,29.91,6,1,0,0.00
2013-11-9,68.8,58.3,50.3,56.0,51.3,31.6,96,79,39,30.06,29.98,8,1,0,0.00
2013-11-10,76.3,62.1,55.7,58.9,45.7,17.1,83,58,11,30.12,30.00,10,2,0,0.00
2013-11-11,69.6,60.6,53.9,59.8,51.5,34.9,89,73,44,30.11,30.00,10,2,0,0.00
2013-11-12,72.8,64.6,56.0,60.3,52.1,43.0,85,65,41,30.15,30.02,7,1,0,0.00
2013-11-13,77.0,68.5,59.3,59.2,48.0,37.7,69,49,29,30.03,29.86,7,1,0,0.00
2013-11-14,81.6,68.5,57.7,62.4,48.7,32.1,95,53,17,29.90,29.76,14,1,14,0.00
2013-11-15,65.6,61.0,57.3,57.9,55.9,53.4,95,84,73,29.76,29.66,20,6,23,0.00
2013-11-16,65.7,59.9,56.6,55.6,51.5,48.6,91,74,57,29.93,29.74,8,2,12,0.03
2013-11-17,66.4,59.3,53.5,55.5,52.2,48.3,87,78,63,30.08,29.93,7,2,0,0.00
2013-11-18,65.0,59.4,53.6,56.6,53.6,49.8,89,81,69,30.14,30.03,13,3,15,0.00
2013-11-19,63.4,59.4,56.2,55.1,53.7,52.3,88,81,69,30.08,29.94,10,2,13,0.00
2013-11-20,67.3,60.8,55.7,57.7,55.3,51.8,95,82,70,29.97,29.87,8,2,0,0.11
2013-11-21,61.9,58.9,55.3,58.8,56.6,52.6,96,92,84,29.89,29.83,16,4,18,0.23
2013-11-22,59.3,55.3,52.4,53.4,47.7,41.3,91,76,61,29.93,29.81,13,4,16,0.01
2013-11-23,66.5,57.0,51.7,50.6,45.8,41.1,77,67,46,30.07,29.93,9,3,0,0.00
2013-11-24,63.1,57.6,50.5,53.9,48.8,41.1,79,73,66,30.17,30.06,10,3,0,0.00
2013-11-25,66.9,58.4,51.1,56.3,46.6,41.5,77,65,45,30.22,30.13,11,3,0,0.00
2013-11-26,68.8,61.2,53.0,56.8,46.2,36.0,79,59,32,30.17,30.01,9,2,0,0.00
2013-11-27,69.2,62.4,55.8,55.0,45.4,37.6,87,54,37,30.02,29.86,9,2,0,0.00
2013-11-28,66.2,59.4,54.0,56.2,47.1,36.7,79,64,47,30.04,29.87,8,2,0,0.00
2013-11-29,62.4,58.6,55.5,56.3,52.8,49.1,89,81,73,30.16,30.04,7,2,0,0.09
2013-11-30,67.6,60.4,55.0,58.4,52.9,48.3,85,77,66,30.16,30.06,9,2,0,0.00
2013-12-1,70.0,62.2,55.7,58.8,49.3,33.3,82,64,34,30.19,30.07,7,2,0,0.00
2013-12-2,68.8,61.8,55.3,56.1,43.6,27.2,81,53,25,30.09,29.90,7,2,0,0.00
2013-12-3,63.5,58.2,53.4,55.4,50.6,39.5,84,76,59,29.90,29.75,16,4,17,0.00
2013-12-4,60.1,55.1,49.1,47.0,40.6,37.3,68,59,43,29.95,29.88,9,2,12,0.00
2013-12-5,60.1,52.7,47.5,43.4,40.2,36.8,72,63,45,30.09,29.93,10,3,0,0.00
2013-12-6,59.1,52.2,48.2,44.9,39.8,37.6,69,63,52,30.17,30.09,15,4,17,0.00
2013-12-7,57.6,51.4,46.4,51.6,43.2,38.3,90,73,60,30.11,30.00,21,5,29,0.11
2013-12-9,59.1,52.3,47.1,9.9,3.3,-1.5,17,13,11,30.25,30.22,19,7,23,0.00
2013-12-10,61.4,53.3,45.7,45.5,23.1,1.3,59,33,14,30.23,30.06,11,3,0,0.00
2013-12-11,64.0,55.1,48.7,51.3,36.0,16.9,81,51,26,30.15,30.07,8,2,0,0.00
2013-12-12,62.0,55.0,48.5,54.5,46.8,37.1,90,75,48,30.20,30.12,7,2,0,0.00
2013-12-13,60.8,53.1,46.6,51.8,45.9,35.3,90,77,59,30.22,30.11,9,2,0,0.00
2013-12-14,67.2,57.2,45.9,55.2,43.6,20.1,94,66,19,30.27,30.15,10,2,0,0.01
2013-12-15,75.2,62.6,55.7,55.4,36.7,18.3,77,42,14,30.21,30.04,8,2,0,0.00
2013-12-16,76.4,65.4,56.4,54.6,39.1,26.1,69,39,23,30.10,30.01,6,2,0,0.00
2013-12-17,74.1,64.5,56.6,55.0,44.4,33.1,83,50,30,30.11,29.97,6,1,4,0.00
2013-12-18,68.3,60.1,55.9,57.5,51.4,42.7,91,74,50,30.00,29.84,14,2,15,0.00
2013-12-19,56.5,52.4,46.1,50.6,46.9,41.1,88,81,74,29.86,29.71,14,4,17,0.02
2013-12-20,60.1,52.2,44.3,51.1,45.8,39.8,88,79,70,29.94,29.75,11,3,12,0.00
2013-12-21,60.6,53.7,48.6,51.4,47.2,43.3,85,79,68,30.07,29.90,10,3,14,0.00
2013-12-22,61.4,55.0,47.2,53.1,47.8,40.7,87,77,60,30.24,30.06,10,2,0,0.00
2013-12-23,71.6,61.8,51.9,53.2,41.8,35.4,67,49,28,30.28,30.15,13,2,15,0.00
2013-12-24,66.5,60.4,54.8,54.3,44.1,35.2,73,55,40,30.18,30.06,6,2,0,0.00
2013-12-25,78.7,66.3,56.2,49.2,31.7,13.9,56,31,12,30.17,30.06,16,3,17,0.00
2013-12-26,78.8,66.3,59.3,48.8,21.4,8.6,51,20,7,30.13,30.03,11,3,0,0.00
2013-12-27,73.2,63.2,54.8,52.4,26.2,10.5,62,26,13,30.12,30.01,8,2,0,0.00
2013-12-28,67.6,58.3,50.6,55.7,40.4,23.7,86,54,22,30.03,29.92,12,2,15,0.00
2013-12-29,66.2,55.4,48.3,54.9,45.1,19.9,93,71,24,30.13,29.98,6,2,0,0.00
2013-12-30,73.0,59.7,51.5,46.3,24.9,13.4,63,28,11,30.24,30.12,7,2,0,0.00
2013-12-31,61.7,55.1,49.0,55.2,40.6,19.8,93,63,29,30.18,30.07,7,1,0,0.00
2014-1-1,72.3,55.8,46.0,59.0,50.7,43.8,95,84,56,30.12,30.01,7,0,0,0.00
2014-1-2,63.7,54.2,47.5,58.0,50.1,41.3,95,86,68,30.08,29.98,4,0,0,0.01